Time;durP1;ratioP1;P1;durP2;ratioP2;P2;SDS_P1;SDS_P2;PMS_P1;PMS_P2;Temp;Humidity;BMP_temperature;BMP_pressure;BME280_temperature;BME280_humidity;BME280_pressure;Samples;Min_cycle;Max_cycle;Signal;HPM_P1;HPM_P2
2023/10/12 00:02:45;;;;;;;3.00;2.70;;;22.60;99.90;;;;;;5017663;28;20461;-54
2023/10/12 00:05:17;;;;;;;7.50;3.70;;;22.60;99.90;;;;;;5019316;28;20463;-52
2023/10/12 00:07:45;;;;;;;7.33;3.60;;;22.60;99.90;;;;;;5018448;28;20498;-55
2023/10/12 00:10:21;;;;;;;5.83;3.30;;;22.50;99.90;;;;;;5019542;28;20684;-52
2023/10/12 00:12:50;;;;;;;5.50;3.33;;;22.60;99.90;;;;;;5021406;28;20457;-58
2023/10/12 00:15:28;;;;;;;6.27;3.73;;;22.60;99.90;;;;;;5019128;28;20481;-55
2023/10/12 00:17:58;;;;;;;4.33;2.70;;;22.60;99.90;;;;;;5024086;28;20525;-57
2023/10/12 00:20:34;;;;;;;4.53;3.10;;;22.50;99.90;;;;;;5020145;28;20850;-58
2023/10/12 00:23:09;;;;;;;4.33;3.30;;;22.60;99.90;;;;;;5021224;28;20579;-55
2023/10/12 00:25:45;;;;;;;5.23;3.80;;;22.60;99.90;;;;;;5017999;28;20839;-54
2023/10/12 00:28:13;;;;;;;4.33;3.30;;;22.60;99.90;;;;;;5017719;28;20554;-55
2023/10/12 00:30:42;;;;;;;5.43;3.17;;;22.50;99.90;;;;;;5017032;28;21599;-58
2023/10/12 00:33:09;;;;;;;4.07;3.03;;;22.50;99.90;;;;;;5018263;28;20457;-55
2023/10/12 00:35:37;;;;;;;4.77;2.97;;;22.60;99.90;;;;;;5009471;28;20463;-58
2023/10/12 00:38:16;;;;;;;4.30;3.30;;;22.50;99.90;;;;;;5019527;28;20491;-54
2023/10/12 00:40:50;;;;;;;4.13;2.83;;;22.50;99.90;;;;;;5017422;28;21378;-58
2023/10/12 00:43:16;;;;;;;5.47;3.00;;;22.50;99.90;;;;;;5017467;28;20457;-58
2023/10/12 00:45:45;;;;;;;3.37;2.90;;;22.50;99.90;;;;;;5014383;28;21406;-58
2023/10/12 00:48:16;;;;;;;4.03;3.17;;;22.60;99.90;;;;;;5017276;28;20808;-55
2023/10/12 00:50:44;;;;;;;6.23;3.33;;;22.50;99.90;;;;;;5013059;28;20490;-56
2023/10/12 00:53:22;;;;;;;6.17;3.90;;;22.50;99.90;;;;;;5018015;28;20595;-55
2023/10/12 00:55:49;;;;;;;5.40;3.97;;;22.50;99.90;;;;;;5011807;28;20468;-55
2023/10/12 00:58:17;;;;;;;5.57;3.13;;;22.50;99.90;;;;;;5018019;28;20492;-58
2023/10/12 01:00:46;;;;;;;5.97;3.10;;;22.50;99.90;;;;;;5014670;28;20794;-57
2023/10/12 01:03:31;;;;;;;4.37;3.20;;;22.50;99.90;;;;;;5032091;22;20576;-53
2023/10/12 01:06:12;;;;;;;5.40;3.97;;;22.50;99.90;;;;;;5016772;28;20445;-53
2023/10/12 01:08:42;;;;;;;3.57;3.07;;;22.50;99.90;;;;;;5022126;28;20455;-52
2023/10/12 01:11:09;;;;;;;6.13;3.10;;;22.50;99.90;;;;;;5016254;28;20460;-51
2023/10/12 01:13:37;;;;;;;3.97;3.33;;;22.70;99.90;;;;;;5017330;28;20462;-52
2023/10/12 01:16:16;;;;;;;3.23;2.93;;;22.50;99.90;;;;;;5017070;28;20550;-51
2023/10/12 01:18:44;;;;;;;2.80;2.50;;;22.60;99.90;;;;;;5020954;28;20458;-50
2023/10/12 01:21:12;;;;;;;5.53;3.80;;;22.50;99.90;;;;;;5017464;28;21436;-51
2023/10/12 01:23:41;;;;;;;4.67;3.23;;;22.50;99.90;;;;;;5020691;28;21108;-55
2023/10/12 01:26:11;;;;;;;3.60;2.80;;;22.50;99.90;;;;;;5015593;28;20473;-52
2023/10/12 01:28:39;;;;;;;3.90;3.00;;;22.60;99.90;;;;;;5019787;28;20517;-52
2023/10/12 01:31:06;;;;;;;3.93;3.33;;;22.40;99.90;;;;;;5017573;28;20492;-52
2023/10/12 01:33:32;;;;;;;3.63;3.20;;;22.40;99.90;;;;;;5020161;28;20512;-51
2023/10/12 01:35:59;;;;;;;2.90;2.50;;;22.40;99.90;;;;;;5016532;28;20964;-54
2023/10/12 01:38:36;;;;;;;4.00;3.47;;;22.50;99.90;;;;;;5020450;28;20472;-52
2023/10/12 01:41:09;;;;;;;3.97;3.10;;;22.50;99.90;;;;;;5021256;28;20470;-53
2023/10/12 01:43:36;;;;;;;5.00;3.30;;;22.60;99.90;;;;;;5018695;28;20783;-56
2023/10/12 01:46:08;;;;;;;3.70;3.30;;;22.40;99.90;;;;;;5016682;28;20520;-51
2023/10/12 01:48:35;;;;;;;4.37;3.10;;;22.50;99.90;;;;;;5018109;28;20458;-52
2023/10/12 01:51:09;;;;;;;3.73;2.47;;;22.40;99.90;;;;;;5018228;28;20465;-53
2023/10/12 01:53:37;;;;;;;4.30;3.43;;;22.60;99.90;;;;;;5023278;28;20533;-50
2023/10/12 01:56:09;;;;;;;3.83;3.00;;;22.50;99.90;;;;;;5021652;28;20465;-52
2023/10/12 01:58:36;;;;;;;4.17;3.60;;;22.40;99.90;;;;;;5022839;28;20462;-52
2023/10/12 02:01:07;;;;;;;3.73;3.27;;;22.40;99.90;;;;;;5022835;28;20766;-51
2023/10/12 02:03:37;;;;;;;4.17;3.33;;;22.50;99.90;;;;;;5025548;28;20888;-55
2023/10/12 02:06:06;;;;;;;3.53;3.20;;;22.40;99.90;;;;;;5022141;28;20949;-52
2023/10/12 02:08:40;;;;;;;7.30;3.10;;;22.40;99.90;;;;;;5023465;28;20472;-56
2023/10/12 02:11:11;;;;;;;4.27;3.10;;;22.60;99.90;;;;;;5021207;28;21072;-49
2023/10/12 02:13:39;;;;;;;3.77;3.37;;;22.50;99.90;;;;;;5022079;28;20469;-53
2023/10/12 02:16:07;;;;;;;3.30;2.60;;;22.40;99.90;;;;;;5010073;28;20458;-52
2023/10/12 02:18:35;;;;;;;2.77;2.57;;;22.40;99.90;;;;;;5022726;28;20461;-55
2023/10/12 02:21:10;;;;;;;3.50;2.73;;;22.50;99.90;;;;;;5018242;28;20539;-53
2023/10/12 02:23:39;;;;;;;3.40;3.10;;;22.50;99.90;;;;;;5019536;28;20449;-53
2023/10/12 02:26:28;;;;;;;3.53;2.93;;;22.50;99.90;;;;;;5021398;28;20466;-52
2023/10/12 02:29:00;;;;;;;4.27;3.00;;;22.40;99.90;;;;;;5019401;28;20461;-52
2023/10/12 02:31:28;;;;;;;3.27;2.93;;;22.40;99.90;;;;;;5017644;28;21097;-53
2023/10/12 02:33:55;;;;;;;3.57;3.03;;;22.40;99.90;;;;;;5021405;28;20489;-51
2023/10/12 02:36:26;;;;;;;3.47;2.93;;;22.40;99.90;;;;;;5017887;28;20461;-56
2023/10/12 02:38:54;;;;;;;3.93;2.67;;;22.50;99.90;;;;;;5018913;28;20461;-55
2023/10/12 02:41:24;;;;;;;3.30;2.93;;;22.40;99.90;;;;;;5021438;28;20474;-52
2023/10/12 02:44:11;;;;;;;3.40;2.83;;;22.40;99.90;;;;;;5019733;28;20471;-53
2023/10/12 02:46:41;;;;;;;5.30;2.80;;;22.40;99.90;;;;;;5021057;28;20461;-50
2023/10/12 02:49:08;;;;;;;3.50;3.20;;;22.40;99.90;;;;;;5017621;28;20969;-54
2023/10/12 02:51:37;;;;;;;3.93;2.80;;;22.40;99.90;;;;;;5017667;28;20928;-53
2023/10/12 02:54:04;;;;;;;3.70;2.60;;;22.50;99.90;;;;;;5015903;28;20587;-54
2023/10/12 02:56:35;;;;;;;2.90;2.60;;;22.40;99.90;;;;;;5019022;28;20441;-52
2023/10/12 02:59:04;;;;;;;3.03;2.67;;;22.40;99.90;;;;;;5019311;28;20449;-54
2023/10/12 03:01:31;;;;;;;4.13;3.07;;;22.40;99.90;;;;;;5021627;28;20482;-56
2023/10/12 03:03:58;;;;;;;3.50;3.00;;;22.40;99.90;;;;;;5020097;28;20473;-52
2023/10/12 03:06:25;;;;;;;3.90;2.83;;;22.40;99.90;;;;;;5018779;28;20466;-51
2023/10/12 03:09:14;;;;;;;2.83;2.40;;;22.40;99.90;;;;;;5020512;28;20472;-52
2023/10/12 03:11:43;;;;;;;3.67;3.20;;;22.40;99.90;;;;;;5022739;28;20932;-53
2023/10/12 03:14:14;;;;;;;4.47;2.47;;;22.40;99.90;;;;;;5020338;28;20461;-53
2023/10/12 03:16:42;;;;;;;2.93;2.73;;;22.50;99.90;;;;;;5022140;28;20454;-54
2023/10/12 03:19:22;;;;;;;3.10;2.70;;;22.50;99.90;;;;;;5017782;28;20454;-52
2023/10/12 03:21:51;;;;;;;3.10;2.80;;;22.40;99.90;;;;;;5022068;28;20474;-50
2023/10/12 03:24:21;;;;;;;3.20;2.40;;;22.40;99.90;;;;;;5016526;28;20450;-53
2023/10/12 03:26:57;;;;;;;4.03;3.17;;;22.40;99.90;;;;;;5021471;28;20455;-54
2023/10/12 03:29:26;;;;;;;3.03;2.73;;;22.40;99.90;;;;;;5021465;28;20573;-54
2023/10/12 03:31:57;;;;;;;4.27;2.93;;;22.40;99.90;;;;;;5019856;28;20473;-54
2023/10/12 03:34:53;;;;;;;2.90;2.20;;;22.50;99.90;;;;;;5018414;28;21029;-54
2023/10/12 03:37:30;;;;;;;3.33;3.03;;;22.40;99.90;;;;;;5017731;28;20936;-56
2023/10/12 03:39:59;;;;;;;3.57;2.63;;;22.60;99.90;;;;;;5021104;28;20457;-53
2023/10/12 03:42:42;;;;;;;5.07;3.43;;;22.40;99.90;;;;;;5017104;28;20953;-50
2023/10/12 03:45:23;;;;;;;3.00;2.60;;;22.40;99.90;;;;;;5019179;28;20584;-50
2023/10/12 03:48:03;;;;;;;3.80;2.63;;;22.40;99.90;;;;;;5018786;28;21130;-53
2023/10/12 03:50:33;;;;;;;3.23;2.80;;;22.40;99.90;;;;;;5016308;28;20453;-53
2023/10/12 03:53:05;;;;;;;4.00;3.07;;;22.50;99.90;;;;;;5019985;28;20488;-53
2023/10/12 03:55:34;;;;;;;3.33;2.50;;;22.40;99.90;;;;;;5014644;28;20466;-49
2023/10/12 03:58:06;;;;;;;3.40;2.90;;;22.40;99.90;;;;;;5020225;28;20455;-51
2023/10/12 04:00:46;;;;;;;3.67;3.00;;;22.40;99.90;;;;;;5016902;28;20546;-53
2023/10/12 04:03:18;;;;;;;3.97;2.90;;;22.30;99.90;;;;;;5018332;28;20484;-51
2023/10/12 04:05:54;;;;;;;2.83;2.63;;;22.40;99.90;;;;;;5016557;28;20454;-55
2023/10/12 04:08:46;;;;;;;3.80;2.43;;;22.40;99.90;;;;;;5019232;28;20462;-55
2023/10/12 04:16:57;;;;;;;3.40;2.80;;;22.30;99.90;;;;;;5019868;28;20448;-51
2023/10/12 04:19:29;;;;;;;4.10;2.60;;;22.40;99.90;;;;;;5018091;28;20450;-50
2023/10/12 04:24:54;;;;;;;2.77;2.57;;;22.30;99.90;;;;;;4978009;28;20985;-56
2023/10/12 04:27:39;;;;;;;4.63;2.70;;;22.30;99.90;;;;;;5016953;28;20464;-51
2023/10/12 04:30:20;;;;;;;3.70;3.20;;;22.30;99.90;;;;;;5017153;28;20489;-53
2023/10/12 04:32:57;;;;;;;3.23;2.87;;;22.30;99.90;;;;;;5016006;28;20490;-49
2023/10/12 04:35:34;;;;;;;3.90;2.97;;;22.40;99.90;;;;;;5012442;28;20830;-52
2023/10/12 04:38:17;;;;;;;4.23;2.80;;;22.30;99.90;;;;;;5019581;28;20460;-51
2023/10/12 04:41:13;;;;;;;2.80;2.47;;;22.30;99.90;;;;;;5018623;28;20493;-53
2023/10/12 04:43:31;;;;;;;3.70;2.60;;;22.30;99.90;;;;;;5018265;28;20465;-52
2023/10/12 04:46:16;;;;;;;4.27;3.13;;;22.40;99.90;;;;;;5018628;28;20884;-50
2023/10/12 04:48:43;;;;;;;2.90;2.60;;;22.30;99.90;;;;;;5019193;28;20455;-54
2023/10/12 04:51:18;;;;;;;3.40;2.40;;;22.40;99.90;;;;;;5018168;28;20465;-53
2023/10/12 04:53:57;;;;;;;3.23;2.90;;;22.30;99.90;;;;;;5021689;28;20461;-48
2023/10/12 04:56:26;;;;;;;4.00;2.70;;;22.30;99.90;;;;;;5017127;28;20952;-52
2023/10/12 04:58:59;;;;;;;3.90;3.07;;;22.40;99.90;;;;;;5019934;28;20457;-54
2023/10/12 05:01:40;;;;;;;3.70;2.70;;;22.30;99.90;;;;;;5014288;28;20551;-51
2023/10/12 05:04:08;;;;;;;5.33;2.60;;;22.30;99.90;;;;;;5019258;28;20465;-51
2023/10/12 05:06:36;;;;;;;3.60;2.90;;;22.30;99.90;;;;;;5016606;28;20455;-51
2023/10/12 05:09:10;;;;;;;3.63;3.00;;;22.30;99.90;;;;;;5019470;28;21025;-50
2023/10/12 05:11:38;;;;;;;3.23;2.90;;;22.30;99.90;;;;;;5019660;28;20468;-52
2023/10/12 05:14:14;;;;;;;5.20;2.73;;;22.30;99.90;;;;;;5020110;28;20471;-52
2023/10/12 05:16:45;;;;;;;3.30;2.57;;;22.20;99.90;;;;;;5018073;28;20466;-52
2023/10/12 05:19:12;;;;;;;3.23;2.90;;;22.30;99.90;;;;;;5017736;28;20465;-55
2023/10/12 05:21:39;;;;;;;2.50;2.30;;;22.40;99.90;;;;;;5017121;28;20489;-55
2023/10/12 05:24:08;;;;;;;2.90;2.63;;;22.50;99.90;;;;;;5017674;28;20458;-54
2023/10/12 05:26:35;;;;;;;2.90;2.70;;;22.30;99.90;;;;;;5023373;28;20463;-51
2023/10/12 05:31:48;;;;;;;2.47;2.00;;;22.30;99.90;;;;;;5021745;28;20461;-52
2023/10/12 05:34:32;;;;;;;3.00;2.70;;;22.30;99.90;;;;;;5025208;28;20516;-52
2023/10/12 05:37:00;;;;;;;2.40;2.20;;;22.30;99.90;;;;;;5024006;28;20470;-55
2023/10/12 05:39:27;;;;;;;4.87;2.67;;;22.40;99.90;;;;;;5024778;28;20815;-52
2023/10/12 05:41:57;;;;;;;2.67;2.47;;;22.40;99.90;;;;;;5023443;28;20560;-51
2023/10/12 05:44:26;;;;;;;4.57;2.53;;;22.30;99.90;;;;;;5025520;28;20587;-49
2023/10/12 05:46:59;;;;;;;3.27;2.73;;;22.50;99.90;;;;;;5022550;28;20577;-55
2023/10/12 05:49:26;;;;;;;3.73;3.10;;;22.40;99.90;;;;;;5022645;28;20530;-52
2023/10/12 05:51:54;;;;;;;4.43;2.83;;;22.40;99.90;;;;;;5023458;28;20462;-51
2023/10/12 05:54:23;;;;;;;3.37;2.83;;;22.50;99.90;;;;;;5019104;28;20462;-51
2023/10/12 05:56:51;;;;;;;3.10;2.80;;;22.40;99.90;;;;;;5020221;28;20556;-52
2023/10/12 05:59:20;;;;;;;3.67;2.97;;;22.40;99.90;;;;;;5022811;28;20464;-53
2023/10/12 06:01:48;;;;;;;10.47;3.87;;;22.50;99.90;;;;;;5021039;28;20454;-51
2023/10/12 06:04:19;;;;;;;2.97;2.57;;;22.50;99.90;;;;;;5022072;28;20504;-54
2023/10/12 06:06:47;;;;;;;3.37;2.70;;;22.50;99.90;;;;;;5025901;28;20467;-50
2023/10/12 06:09:20;;;;;;;3.57;2.80;;;22.50;99.90;;;;;;5025624;28;20470;-53
2023/10/12 06:11:48;;;;;;;3.47;3.17;;;22.50;99.90;;;;;;5020483;28;20458;-52
2023/10/12 06:14:20;;;;;;;9.33;5.10;;;22.50;99.90;;;;;;5022119;28;20465;-51
2023/10/12 06:16:48;;;;;;;7.20;5.50;;;22.50;99.90;;;;;;5024030;28;20868;-51
2023/10/12 06:19:22;;;;;;;7.47;4.50;;;22.50;99.90;;;;;;5020705;28;20462;-52
2023/10/12 06:21:51;;;;;;;6.43;5.10;;;22.50;99.90;;;;;;5020686;28;20469;-54
2023/10/12 06:24:23;;;;;;;8.00;5.30;;;22.50;99.90;;;;;;5022331;28;20744;-52
2023/10/12 06:26:49;;;;;;;10.07;5.63;;;22.50;99.90;;;;;;5014247;28;20466;-52
2023/10/12 06:29:26;;;;;;;12.80;6.07;;;22.50;99.90;;;;;;5017681;28;20459;-53
2023/10/12 06:31:54;;;;;;;9.83;5.50;;;22.50;99.90;;;;;;5016786;28;20737;-50
2023/10/12 06:34:23;;;;;;;9.60;7.03;;;22.50;99.90;;;;;;5018105;28;20461;-50
2023/10/12 06:36:57;;;;;;;9.47;5.07;;;22.50;99.90;;;;;;5018134;28;20958;-49
2023/10/12 06:42:24;;;;;;;11.50;5.47;;;22.50;99.90;;;;;;5021326;28;20484;-52
2023/10/12 06:44:50;;;;;;;7.33;4.80;;;22.50;99.90;;;;;;5020493;28;20484;-50
2023/10/12 06:47:40;;;;;;;8.67;5.10;;;22.50;99.90;;;;;;5019706;28;20466;-53
2023/10/12 06:50:15;;;;;;;6.37;4.67;;;22.50;99.90;;;;;;5019086;28;20371;-51
2023/10/12 06:52:41;;;;;;;8.23;4.27;;;22.50;99.90;;;;;;5018381;28;20460;-49
2023/10/12 06:55:09;;;;;;;6.87;4.73;;;22.50;99.90;;;;;;5014070;28;20463;-62
2023/10/12 06:57:42;;;;;;;10.23;5.63;;;22.50;99.90;;;;;;5015033;28;21024;-61
2023/10/12 07:00:33;;;;;;;16.10;5.00;;;22.50;99.90;;;;;;5017027;28;20461;-61
2023/10/12 07:03:05;;;;;;;7.43;5.53;;;22.50;99.90;;;;;;5019632;28;20787;-62
2023/10/12 07:05:37;;;;;;;8.97;5.00;;;22.50;99.90;;;;;;5020187;28;20462;-62
2023/10/12 07:08:07;;;;;;;9.37;5.50;;;22.50;99.90;;;;;;5019649;28;20471;-63
2023/10/12 07:10:34;;;;;;;6.37;5.43;;;22.50;99.90;;;;;;5018516;28;20489;-64
2023/10/12 07:13:03;;;;;;;11.00;6.03;;;22.50;99.90;;;;;;5020908;28;20469;-62
2023/10/12 07:15:39;;;;;;;7.60;4.90;;;22.50;99.90;;;;;;5018726;28;21037;-64
2023/10/12 07:18:13;;;;;;;8.73;5.47;;;22.50;99.90;;;;;;5019818;28;20943;-63
2023/10/12 07:20:43;;;;;;;8.33;5.60;;;22.50;99.90;;;;;;5018439;28;20473;-59
2023/10/12 07:23:16;;;;;;;6.67;4.93;;;22.50;99.90;;;;;;5015350;28;20509;-57
2023/10/12 07:25:45;;;;;;;6.70;4.50;;;22.50;99.90;;;;;;5019224;28;20465;-56
2023/10/12 07:28:17;;;;;;;7.90;5.70;;;22.50;99.90;;;;;;5016636;28;20451;-57
2023/10/12 07:31:02;;;;;;;9.40;4.87;;;22.50;99.90;;;;;;5020536;28;20917;-59
2023/10/12 07:33:29;;;;;;;7.57;5.87;;;22.50;99.90;;;;;;5020268;28;20461;-57
2023/10/12 07:36:08;;;;;;;8.30;4.80;;;22.50;99.90;;;;;;5020115;28;20667;-56
2023/10/12 07:38:36;;;;;;;5.97;4.93;;;22.50;99.90;;;;;;5017638;28;20461;-55
2023/10/12 07:41:04;;;;;;;5.67;5.03;;;22.60;99.90;;;;;;5023115;28;20470;-56
2023/10/12 07:43:32;;;;;;;6.03;4.80;;;22.50;99.90;;;;;;5019483;28;20478;-56
2023/10/12 07:46:09;;;;;;;9.50;5.20;;;22.60;99.90;;;;;;5017300;28;21651;-57
2023/10/12 07:48:42;;;;;;;9.00;5.83;;;22.60;99.90;;;;;;5018979;28;20886;-61
2023/10/12 07:51:24;;;;;;;12.43;6.27;;;22.60;99.90;;;;;;5016109;28;21056;-59
2023/10/12 07:53:57;;;;;;;12.00;6.17;;;22.60;99.90;;;;;;5015928;28;20609;-57
2023/10/12 07:56:25;;;;;;;7.23;5.07;;;22.60;99.90;;;;;;5015491;28;20516;-57
2023/10/12 07:58:57;;;;;;;5.50;5.00;;;22.60;99.90;;;;;;5015620;28;20947;-57
2023/10/12 08:01:39;;;;;;;15.33;6.27;;;22.60;99.90;;;;;;5011763;28;20462;-56
2023/10/12 08:04:29;;;;;;;6.57;4.77;;;22.60;99.90;;;;;;5018803;28;21036;-57
2023/10/12 08:06:56;;;;;;;6.97;5.87;;;22.60;99.90;;;;;;5018137;28;21315;-59
2023/10/12 08:09:34;;;;;;;11.77;7.13;;;22.60;99.90;;;;;;5019971;28;20462;-57
2023/10/12 08:12:23;;;;;;;6.53;5.90;;;22.70;99.90;;;;;;5020943;28;20466;-56
2023/10/12 08:14:49;;;;;;;8.63;6.20;;;22.70;99.90;;;;;;5018431;28;21485;-53
2023/10/12 08:17:33;;;;;;;10.73;5.40;;;22.70;99.90;;;;;;5015259;28;20535;-60
2023/10/12 08:22:43;;;;;;;9.67;5.40;;;22.70;99.90;;;;;;5021512;28;20473;-61
2023/10/12 08:25:10;;;;;;;14.27;6.27;;;22.70;99.90;;;;;;5016593;28;20460;-54
2023/10/12 08:27:52;;;;;;;11.30;5.73;;;22.70;99.90;;;;;;5014435;28;20463;-56
2023/10/12 08:30:24;;;;;;;11.90;5.70;;;22.70;99.90;;;;;;5011109;28;20491;-58
2023/10/12 08:32:58;;;;;;;11.80;6.17;;;22.70;99.90;;;;;;5021589;28;21311;-56
2023/10/12 08:35:37;;;;;;;8.53;6.07;;;22.70;99.90;;;;;;5006977;28;20461;-57
2023/10/12 08:38:12;;;;;;;7.90;6.13;;;22.70;99.90;;;;;;5021757;28;20469;-57
2023/10/12 08:40:53;;;;;;;6.53;5.80;;;22.70;99.90;;;;;;5015976;28;20804;-55
2023/10/12 08:43:34;;;;;;;7.77;6.40;;;22.70;99.90;;;;;;5014479;28;21138;-57
2023/10/12 08:46:01;;;;;;;8.20;6.00;;;22.70;99.90;;;;;;5010898;28;20467;-56
2023/10/12 08:48:34;;;;;;;8.47;4.73;;;22.80;99.90;;;;;;5014485;28;20751;-56
2023/10/12 08:51:09;;;;;;;7.43;6.63;;;22.80;99.90;;;;;;5015648;28;20819;-55
2023/10/12 08:53:40;;;;;;;7.70;6.90;;;22.80;99.90;;;;;;5017016;28;20614;-59
2023/10/12 08:56:11;;;;;;;11.57;7.40;;;22.80;99.90;;;;;;5016823;28;20454;-56
2023/10/12 08:58:46;;;;;;;8.20;5.40;;;22.80;99.90;;;;;;5012828;28;20485;-55
2023/10/12 09:01:22;;;;;;;8.50;6.60;;;22.80;99.90;;;;;;5010924;28;20463;-56
2023/10/12 09:03:53;;;;;;;8.30;5.60;;;22.80;99.90;;;;;;5016060;28;21040;-56
2023/10/12 09:09:03;;;;;;;7.10;5.73;;;22.80;99.90;;;;;;5004606;28;20549;-56
2023/10/12 09:11:33;;;;;;;6.80;6.10;;;22.80;99.90;;;;;;5020695;28;20619;-55
2023/10/12 09:14:01;;;;;;;6.50;5.90;;;22.80;99.90;;;;;;5015553;28;22223;-57
2023/10/12 09:16:32;;;;;;;9.33;6.30;;;22.80;99.90;;;;;;5014004;28;20458;-61
2023/10/12 09:18:59;;;;;;;7.33;5.90;;;22.80;99.90;;;;;;5018282;28;20967;-58
2023/10/12 09:21:38;;;;;;;13.43;6.20;;;22.90;99.90;;;;;;5018745;28;20790;-57
2023/10/12 09:24:14;;;;;;;7.40;6.40;;;22.90;99.90;;;;;;5018041;28;20569;-59
2023/10/12 09:26:49;;;;;;;7.87;7.07;;;22.90;99.90;;;;;;5018693;28;20466;-59
2023/10/12 09:29:23;;;;;;;7.17;6.30;;;22.90;99.90;;;;;;5011170;28;20458;-59
2023/10/12 09:32:12;;;;;;;9.03;6.87;;;22.90;99.90;;;;;;5015669;28;20481;-60
2023/10/12 09:34:43;;;;;;;7.70;6.87;;;22.90;99.90;;;;;;5017228;28;20460;-58
2023/10/12 09:37:17;;;;;;;8.23;7.07;;;22.90;99.90;;;;;;5015030;28;20458;-60
2023/10/12 09:39:48;;;;;;;10.63;6.50;;;22.90;99.90;;;;;;5019609;28;20564;-57
2023/10/12 09:42:30;;;;;;;6.60;5.77;;;22.90;99.90;;;;;;5018596;28;20583;-60
2023/10/12 09:45:04;;;;;;;7.70;6.80;;;22.90;99.90;;;;;;5018910;28;20476;-59
2023/10/12 09:47:49;;;;;;;7.33;6.30;;;22.90;99.90;;;;;;5015619;28;20545;-57
2023/10/12 09:50:19;;;;;;;8.40;5.90;;;22.90;99.90;;;;;;5018333;28;21194;-58
2023/10/12 09:52:57;;;;;;;9.00;6.93;;;22.90;99.90;;;;;;5014582;28;20461;-59
2023/10/12 09:55:32;;;;;;;7.90;6.97;;;22.90;99.90;;;;;;5017384;28;20548;-57
2023/10/12 09:58:12;;;;;;;7.30;6.63;;;22.80;99.90;;;;;;5008390;28;20456;-57
2023/10/12 10:00:55;;;;;;;7.47;6.20;;;22.80;99.90;;;;;;5016255;28;20469;-58
2023/10/12 10:03:24;;;;;;;8.80;6.30;;;22.80;99.90;;;;;;5016471;28;20509;-59
2023/10/12 10:06:03;;;;;;;8.37;6.47;;;22.80;99.90;;;;;;5015575;28;20540;-59
2023/10/12 10:08:32;;;;;;;7.17;6.33;;;22.80;99.90;;;;;;5015223;28;20465;-59
2023/10/12 10:11:11;;;;;;;6.80;5.87;;;22.80;99.90;;;;;;5014617;28;20553;-58
2023/10/12 10:13:46;;;;;;;9.20;7.13;;;22.90;99.90;;;;;;5017772;28;21105;-60
2023/10/12 10:16:17;;;;;;;7.20;6.37;;;22.80;99.90;;;;;;5018661;28;20487;-57
2023/10/12 10:18:48;;;;;;;9.00;6.87;;;22.80;99.90;;;;;;5017794;28;20900;-58
2023/10/12 10:21:20;;;;;;;7.07;6.20;;;22.80;99.90;;;;;;5020174;28;20491;-56
2023/10/12 10:23:49;;;;;;;7.87;7.10;;;22.80;99.90;;;;;;5020874;28;20473;-58
2023/10/12 10:26:23;;;;;;;8.70;7.80;;;22.80;99.90;;;;;;5013434;28;20955;-54
2023/10/12 10:28:55;;;;;;;10.50;6.80;;;22.80;99.90;;;;;;5016656;28;20856;-53
2023/10/12 10:31:27;;;;;;;9.90;6.67;;;22.80;99.90;;;;;;5017224;28;20775;-55
2023/10/12 10:33:57;;;;;;;7.97;6.47;;;22.80;99.90;;;;;;5017182;28;21005;-59
2023/10/12 10:36:33;;;;;;;9.10;6.10;;;22.90;99.90;;;;;;5007365;28;21111;-61
2023/10/12 10:39:03;;;;;;;7.83;6.20;;;22.90;99.90;;;;;;5018995;28;20799;-60
2023/10/12 10:41:55;;;;;;;6.43;5.83;;;22.90;99.90;;;;;;5018636;28;20530;-59
2023/10/12 10:44:26;;;;;;;7.10;4.90;;;23.00;99.90;;;;;;5017206;28;20481;-60
2023/10/12 10:46:57;;;;;;;6.40;4.87;;;23.00;99.90;;;;;;5018577;28;20464;-59
2023/10/12 10:49:30;;;;;;;6.60;5.63;;;23.10;99.90;;;;;;5015918;28;20798;-58
2023/10/12 10:52:13;;;;;;;6.17;5.30;;;23.10;99.90;;;;;;5020272;28;21051;-59
2023/10/12 10:54:51;;;;;;;7.70;5.27;;;23.10;99.90;;;;;;5018610;28;20474;-57
2023/10/12 10:57:24;;;;;;;5.67;5.17;;;23.20;99.90;;;;;;5019540;28;20460;-57
2023/10/12 10:59:52;;;;;;;7.33;5.23;;;23.20;99.90;;;;;;5019518;28;20466;-58
2023/10/12 11:02:20;;;;;;;6.13;5.33;;;23.30;99.90;;;;;;5013830;28;20850;-59
2023/10/12 11:04:51;;;;;;;7.03;5.03;;;23.30;99.90;;;;;;5012803;28;20480;-58
2023/10/12 11:07:18;;;;;;;8.07;5.33;;;23.30;99.90;;;;;;5016746;28;20940;-57
2023/10/12 11:10:05;;;;;;;6.23;4.60;;;23.40;99.90;;;;;;5020414;28;20518;-59
2023/10/12 11:12:36;;;;;;;5.13;4.63;;;23.40;99.90;;;;;;5016308;28;20464;-61
2023/10/12 11:15:07;;;;;;;7.70;5.57;;;23.40;99.90;;;;;;5015522;28;20550;-57
2023/10/12 11:17:40;;;;;;;5.13;4.60;;;23.50;99.90;;;;;;5018318;28;20467;-61
2023/10/12 11:20:09;;;;;;;6.50;4.67;;;23.50;99.90;;;;;;5015969;28;20464;-62
2023/10/12 11:22:37;;;;;;;11.20;5.20;;;23.60;99.90;;;;;;5017463;28;20461;-58
2023/10/12 11:25:04;;;;;;;6.90;4.67;;;23.60;99.90;;;;;;5014557;28;20484;-59
2023/10/12 11:27:34;;;;;;;8.90;5.53;;;23.60;99.90;;;;;;5016707;28;21196;-61
2023/10/12 11:30:07;;;;;;;7.73;5.07;;;23.70;99.90;;;;;;5013756;28;20461;-56
2023/10/12 11:32:53;;;;;;;5.97;4.83;;;23.70;99.90;;;;;;5012373;28;20500;-58
2023/10/12 11:35:32;;;;;;;6.80;5.50;;;23.80;99.90;;;;;;5008043;28;20469;-60
2023/10/12 11:37:59;;;;;;;11.17;6.07;;;23.80;99.90;;;;;;5018074;28;20472;-60
2023/10/12 11:40:29;;;;;;;6.70;4.90;;;23.80;99.90;;;;;;5016729;28;20462;-60
2023/10/12 11:42:57;;;;;;;10.10;5.93;;;23.90;99.90;;;;;;5018233;28;20458;-62
2023/10/12 11:45:32;;;;;;;5.53;5.03;;;23.90;99.90;;;;;;5013848;28;20490;-61
2023/10/12 11:48:18;;;;;;;5.63;4.30;;;23.90;99.90;;;;;;5017598;28;20457;-59
2023/10/12 11:50:48;;;;;;;7.07;5.20;;;23.90;99.90;;;;;;5014806;28;20461;-59
2023/10/12 11:53:17;;;;;;;6.50;4.20;;;24.00;99.90;;;;;;5014497;28;21167;-59
2023/10/12 11:55:43;;;;;;;6.70;5.37;;;24.00;99.90;;;;;;5015314;28;20483;-58
2023/10/12 11:58:16;;;;;;;11.23;5.80;;;24.00;99.90;;;;;;5019319;28;20450;-59
2023/10/12 12:00:48;;;;;;;10.60;5.13;;;24.00;99.90;;;;;;5019937;28;20540;-58
2023/10/12 12:03:15;;;;;;;8.73;5.87;;;24.10;99.90;;;;;;5022568;28;20477;-57
2023/10/12 12:05:43;;;;;;;7.17;5.83;;;24.10;99.90;;;;;;5015562;28;20815;-60
2023/10/12 12:08:14;;;;;;;9.53;7.00;;;24.10;99.90;;;;;;5018003;28;20660;-59
2023/10/12 12:10:44;;;;;;;13.33;5.83;;;24.10;99.90;;;;;;5017035;28;20458;-60
2023/10/12 12:13:15;;;;;;;33.33;6.40;;;24.10;99.90;;;;;;5016235;28;20462;-59
2023/10/12 12:15:43;;;;;;;7.30;6.27;;;24.10;99.90;;;;;;5016592;28;20504;-58
2023/10/12 12:18:17;;;;;;;7.10;5.70;;;24.10;99.90;;;;;;5018875;28;20947;-56
2023/10/12 12:20:44;;;;;;;10.40;6.07;;;24.10;99.90;;;;;;5018757;28;20465;-60
2023/10/12 12:23:11;;;;;;;6.90;6.00;;;24.10;99.90;;;;;;5018448;28;20556;-59
2023/10/12 12:25:40;;;;;;;8.07;5.50;;;24.10;99.90;;;;;;5018790;28;20490;-56
2023/10/12 12:28:08;;;;;;;5.53;4.67;;;24.10;99.90;;;;;;5018534;28;20465;-57
2023/10/12 12:30:39;;;;;;;5.97;5.30;;;24.10;99.90;;;;;;5019926;28;20554;-58
2023/10/12 12:33:14;;;;;;;9.03;6.20;;;24.10;99.90;;;;;;5019079;28;20458;-56
2023/10/12 12:35:40;;;;;;;6.47;5.63;;;24.10;99.90;;;;;;5017091;28;20460;-58
2023/10/12 12:38:18;;;;;;;6.20;5.60;;;24.10;99.90;;;;;;5020087;28;20454;-57
2023/10/12 12:40:48;;;;;;;6.57;5.30;;;24.00;99.90;;;;;;5019729;28;20486;-58
2023/10/12 12:43:14;;;;;;;6.80;5.40;;;24.10;99.90;;;;;;5018121;28;20470;-59
2023/10/12 12:45:42;;;;;;;7.10;5.40;;;24.00;99.90;;;;;;5021013;28;20482;-59
2023/10/12 12:48:09;;;;;;;6.40;5.80;;;24.00;99.90;;;;;;5020141;28;20457;-58
2023/10/12 12:50:36;;;;;;;7.40;5.87;;;24.00;99.90;;;;;;5018678;28;20465;-59
2023/10/12 12:53:05;;;;;;;7.20;5.87;;;24.00;99.90;;;;;;5021945;28;20484;-60
2023/10/12 12:55:36;;;;;;;5.90;5.30;;;24.00;99.90;;;;;;5018818;28;20981;-60
2023/10/12 12:58:03;;;;;;;6.50;5.90;;;24.00;99.90;;;;;;5021564;28;20453;-60
2023/10/12 13:00:33;;;;;;;6.40;5.17;;;24.00;99.90;;;;;;5020466;28;20632;-57
2023/10/12 13:03:01;;;;;;;8.53;6.53;;;23.90;99.90;;;;;;5020542;28;20523;-59
2023/10/12 13:05:29;;;;;;;8.80;5.87;;;23.90;99.90;;;;;;5015634;28;20472;-59
2023/10/12 13:07:56;;;;;;;7.03;5.33;;;23.90;99.90;;;;;;5020694;28;20864;-57
2023/10/12 13:10:25;;;;;;;8.23;5.93;;;23.90;99.90;;;;;;5020185;28;20790;-57
2023/10/12 13:12:52;;;;;;;6.63;6.03;;;23.90;99.90;;;;;;5020958;28;20930;-57
2023/10/12 13:15:21;;;;;;;7.67;5.50;;;23.90;99.90;;;;;;5018440;28;21041;-57
2023/10/12 13:17:48;;;;;;;5.93;5.20;;;23.90;99.90;;;;;;5021573;28;20458;-54
2023/10/12 13:20:21;;;;;;;6.93;6.10;;;23.80;99.90;;;;;;5019119;28;20457;-57
2023/10/12 13:22:49;;;;;;;6.97;6.23;;;23.80;99.90;;;;;;5018666;28;20591;-59
2023/10/12 13:25:18;;;;;;;7.10;4.90;;;23.80;99.90;;;;;;5020460;28;20480;-59
2023/10/12 13:27:46;;;;;;;7.20;5.70;;;23.80;99.90;;;;;;5019579;28;20476;-60
2023/10/12 13:30:14;;;;;;;5.83;4.70;;;23.80;99.90;;;;;;5020103;28;20549;-59
2023/10/12 13:32:42;;;;;;;5.70;5.20;;;23.80;99.90;;;;;;5021716;28;20513;-58